• Join FlightAware (Why Join?)
  • Login
  • US Flag 
11:09AM EST


 

Airport Tracker/Info


-or-


 

Live Flight TrackerFlight Track Log ✈ UPS2062 ✈ 01-Aug-2013 ✈ KSDF - KBDL

Flight Track Log - Related Links

Times and Time Zones

All times are in EDT time to prevent confusion due to time zone crossing. See the UPS2062 flight status page for this flight to view local times or setup timezone preferences in your user account.

Time Position Orientation Groundspeed Altitude Reporting Facility
EDT Latitude Longitude Course Direction KTS MPH feet Rate Location/Type
04:50PM 38.1770 -85.7460 152° Southeast 157 181 800  Level FlightAware
04:50PM 38.1880 -85.7490 348° North 156 180 1,500 2,160 Climbing FlightAware
04:51PM 38.2030 -85.7540 345° North 181 208 2,100 1,800 Climbing FlightAware
04:51PM 38.2080 -85.7570 335° Northwest 191 220 2,300 2,280 Climbing FlightAware
04:51PM 38.2340 -85.7770 329° Northwest 223 257 3,500 2,700 Climbing FlightAware
04:51PM 38.2470 -85.7860 331° Northwest 229 264 4,300 3,660 Climbing FlightAware
04:52PM 38.2670 -85.8010 330° Northwest 235 270 5,700 3,840 Climbing FlightAware
04:52PM 38.2790 -85.8090 332° Northwest 237 273 6,500 3,720 Climbing FlightAware
04:52PM 38.3000 -85.8180 341° North 240 276 7,700 3,360 Climbing FlightAware
04:53PM 38.3270 -85.8270 345° North 258 297 9,000 2,880 Climbing FlightAware
04:53PM 38.3620 -85.8140 16° North 289 333 10,300 2,280 Climbing FlightAware
04:54PM 38.4120 -85.7720 33° Northeast 341 392 11,700 2,460 Climbing FlightAware
04:54PM 38.4600 -85.7270 36° Northeast 362 417 13,500 3,120 Climbing FlightAware
04:55PM 38.5040 -85.6880 35° Northeast 368 423 15,300 3,060 Climbing FlightAware
04:56PM 38.5530 -85.6440 35° Northeast 383 441 16,900 2,820 Climbing FlightAware
04:56PM 38.6010 -85.6010 35° Northeast 392 451 18,500 2,760 Climbing FlightAware
04:57PM 38.6640 -85.5460 34° Northeast 410 472 20,300 2,700 Climbing FlightAware
04:57PM 38.7150 -85.4990 36° Northeast 414 476 21,800 2,280 Climbing FlightAware
04:58PM 38.7700 -85.4510 34° Northeast 423 487 22,900 1,500 Climbing FlightAware
04:58PM 38.8290 -85.3970 35° Northeast 423 487 23,600 1,860 Climbing FlightAware
04:59PM 38.8840 -85.3470 35° Northeast 426 490 25,100 2,280 Climbing FlightAware
05:00PM 38.9240 -85.3110 35° Northeast 431 496 26,000 2,040 Climbing FlightAware
05:00PM 38.9860 -85.2550 35° Northeast 439 505 27,400 2,040 Climbing FlightAware
05:01PM 39.0500 -85.1960 36° Northeast 449 517 28,500 1,260 Climbing FlightAware
05:01PM 39.1200 -85.1320 35° Northeast 449 517 29,000 360 Climbing FlightAware
05:02PM 39.1700 -85.0860 35° Northeast 446 513 29,000 480 Level FlightAware
05:03PM 39.2440 -85.0200 35° Northeast 443 510 29,600 1,560 Climbing FlightAware
05:03PM 39.2990 -84.9680 36° Northeast 434 499 31,100 1,620 Climbing FlightAware
05:04PM 39.3670 -84.9070 35° Northeast 433 498 31,800 780 Climbing FlightAware
05:05PM 39.4360 -84.8380 38° Northeast 453 521 32,200 1,200 Climbing FlightAware
05:05PM 39.4680 -84.7950 46° Northeast 451 519 33,000 960 Climbing FlightAware
05:05PM 39.5020 -84.7370 53° Northeast 454 522 33,000  Level FlightAware
05:06PM 39.5500 -84.6460 56° Northeast 449 517 33,000  Level FlightAware
05:07PM 39.5900 -84.5680 56° Northeast 446 513 33,000  Level FlightAware
05:07PM 39.6380 -84.4740 56° Northeast 446 513 33,000  Level FlightAware
05:08PM 39.6780 -84.3940 57° Northeast 447 514 33,000  Level FlightAware
05:09PM 39.7160 -84.3200 56° Northeast 446 513 33,000  Level FlightAware
05:09PM 39.7590 -84.2350 57° Northeast 447 514 33,000  Level FlightAware
05:10PM 39.7960 -84.1630 56° Northeast 448 516 33,000  Level FlightAware
05:10PM 39.8390 -84.0770 57° Northeast 448 516 33,000  Level FlightAware
05:11PM 39.8800 -83.9980 56° Northeast 450 518 33,000  Level FlightAware
05:11PM 39.9160 -83.9250 57° Northeast 450 518 33,000  Level FlightAware
05:12PM 39.9580 -83.8410 57° Northeast 451 519 33,000  Level FlightAware
05:13PM 39.9960 -83.7660 57° Northeast 452 520 33,000  Level FlightAware
05:13PM 40.0390 -83.6820 56° Northeast 453 521 33,000  Level FlightAware
05:14PM 40.0810 -83.6000 56° Northeast 456 525 33,000  Level FlightAware
05:14PM 40.1180 -83.5260 57° Northeast 457 526 33,000  Level FlightAware
05:15PM 40.1590 -83.4450 56° Northeast 457 526 33,000  Level FlightAware
05:16PM 40.2020 -83.3590 57° Northeast 458 527 33,000  Level FlightAware
05:16PM 40.2430 -83.2760 57° Northeast 460 529 33,000  Level FlightAware
05:17PM 40.2860 -83.1920 56° Northeast 462 532 33,000  Level FlightAware
05:17PM 40.3260 -83.1120 57° Northeast 463 533 33,000  Level FlightAware
05:18PM 40.3680 -83.0270 57° Northeast 464 534 33,000  Level FlightAware
05:19PM 40.4090 -82.9450 57° Northeast 464 534 33,000  Level FlightAware
05:19PM 40.4470 -82.8670 57° Northeast 464 534 33,000  Level FlightAware
05:20PM 40.4790 -82.8000 58° Northeast 465 535 33,000  Level FlightAware
05:20PM 40.5210 -82.7150 57° Northeast 466 536 33,000  Level FlightAware
05:21PM 40.5740 -82.6100 56° Northeast 466 536 33,000  Level FlightAware
05:21PM 40.6130 -82.5290 58° Northeast 467 537 33,000 60 Level FlightAware
05:22PM 40.6530 -82.4470 57° Northeast 469 540 33,100 780 Climbing FlightAware
05:23PM 40.6960 -82.3590 57° Northeast 471 542 34,000 720 Climbing FlightAware
05:23PM 40.7390 -82.2710 57° Northeast 474 545 34,000 240 Level FlightAware
05:24PM 40.7770 -82.1930 57° Northeast 476 548 34,300 840 Climbing FlightAware
05:24PM 40.8190 -82.1070 57° Northeast 477 549 35,000 540 Climbing FlightAware
05:25PM 40.8620 -82.0160 58° Northeast 479 551 35,000  Level FlightAware
05:26PM 40.9030 -81.9320 57° Northeast 475 547 35,000  Level FlightAware
05:26PM 40.9450 -81.8430 58° Northeast 480 552 35,000  Level FlightAware
05:27PM 40.9870 -81.7530 58° Northeast 484 557 35,000  Level FlightAware
05:27PM 41.0230 -81.6780 58° Northeast 487 560 35,000  Level FlightAware
05:28PM 41.0620 -81.5970 57° Northeast 490 564 35,000  Level FlightAware
05:28PM 41.1100 -81.4950 58° Northeast 493 567 35,000  Level FlightAware
05:29PM 41.1550 -81.4000 58° Northeast 496 571 35,000  Level FlightAware
05:30PM 41.1970 -81.3100 58° Northeast 496 571 35,000 60 Level FlightAware
05:30PM 41.2340 -81.2320 58° Northeast 495 570 35,100  Climbing FlightAware
05:31PM 41.2830 -81.1290 58° Northeast 494 568 35,000 -120 Descending FlightAware
05:31PM 41.3240 -81.0410 58° Northeast 493 567 35,000  Level FlightAware
05:32PM 41.3660 -80.9480 59° Northeast 492 566 35,000  Level FlightAware
05:33PM 41.4070 -80.8610 58° Northeast 491 565 35,000  Level FlightAware
05:33PM 41.4470 -80.7730 59° Northeast 491 565 35,000  Level FlightAware
05:34PM 41.4850 -80.6910 58° Northeast 490 564 35,000  Level FlightAware
05:34PM 41.5320 -80.5900 58° Northeast 489 563 35,000  Level FlightAware
05:35PM 41.5700 -80.5060 59° Northeast 489 563 35,000  Level FlightAware
05:35PM 41.6160 -80.4080 58° Northeast 489 563 35,000  Level FlightAware
05:36PM 41.6580 -80.3120 60° Northeast 489 563 35,000  Level FlightAware
05:37PM 41.6970 -80.2270 58° Northeast 489 563 35,000  Level FlightAware
05:37PM 41.7350 -80.1300 62° Northeast 492 566 35,000  Level FlightAware
05:38PM 41.7630 -80.0270 70° East 492 566 35,000  Level FlightAware
05:38PM 41.7810 -79.9420 74° East 492 566 35,000  Level FlightAware
05:39PM 41.8020 -79.8430 74° East 491 565 35,000  Level FlightAware
05:40PM 41.8270 -79.7230 74° East 490 564 35,000  Level FlightAware
05:40PM 41.8540 -79.5910 75° East 488 562 35,000  Level FlightAware
05:41PM 41.8760 -79.4840 75° East 486 559 35,000  Level FlightAware
05:42PM 41.9080 -79.3240 75° East 483 556 35,000  Level FlightAware
05:42PM 41.9260 -79.2320 75° East 482 555 35,000  Level FlightAware
05:43PM 41.9460 -79.1340 75° East 480 552 35,000  Level FlightAware
05:44PM 41.9660 -79.0330 75° East 479 551 35,000  Level FlightAware
05:44PM 41.9870 -78.9300 75° East 479 551 35,000  Level FlightAware
05:45PM 42.0090 -78.8240 74° East 478 550 35,000  Level FlightAware
05:45PM 42.0290 -78.7260 75° East 477 549 35,000  Level FlightAware
05:46PM 42.0480 -78.6320 75° East 477 549 35,000  Level FlightAware
05:46PM 42.0660 -78.5370 76° East 478 550 35,000  Level FlightAware
05:47PM 42.0870 -78.4370 74° East 479 551 35,000  Level FlightAware
05:48PM 42.1090 -78.3190 76° East 480 552 35,000  Level FlightAware
05:48PM 42.1250 -78.2380 75° East 479 551 35,000  Level FlightAware
05:49PM 42.1460 -78.1310 75° East 480 552 35,000  Level FlightAware
05:49PM 42.1670 -78.0240 75° East 481 554 35,000  Level FlightAware
05:50PM 42.1860 -77.9250 75° East 483 556 35,000  Level FlightAware
05:51PM 42.2070 -77.8170 75° East 485 558 35,000  Level FlightAware
05:51PM 42.2270 -77.7130 75° East 496 571 35,000  Level FlightAware
05:52PM 42.2450 -77.6170 76° East 501 577 35,000  Level FlightAware
05:52PM 42.2660 -77.5080 75° East 502 578 35,000  Level FlightAware
05:53PM 42.2850 -77.4080 76° East 503 579 35,000  Level FlightAware
05:53PM 42.3060 -77.2980 75° East 503 579 35,000  Level FlightAware
05:54PM 42.3270 -77.1800 76° East 505 581 35,000  Level FlightAware
05:55PM 42.3460 -77.0790 76° East 505 581 35,000  Level FlightAware
05:55PM 42.3670 -76.9680 76° East 506 582 35,000  Level FlightAware
05:56PM 42.3840 -76.8730 76° East 507 583 35,000  Level FlightAware
05:56PM 42.4060 -76.7530 76° East 508 585 35,000  Level FlightAware
05:57PM 42.4250 -76.6480 76° East 510 587 35,000  Level FlightAware
05:58PM 42.4450 -76.5360 76° East 513 590 35,000  Level FlightAware
05:58PM 42.4650 -76.4230 76° East 515 593 35,000  Level FlightAware
05:59PM 42.4820 -76.3260 77° East 517 595 35,000  Level FlightAware
05:59PM 42.5030 -76.2090 76° East 518 596 35,000  Level FlightAware
06:00PM 42.5230 -76.0950 77° East 518 596 35,000  Level FlightAware
06:00PM 42.5430 -75.9820 76° East 515 593 35,000  Level FlightAware
06:01PM 42.5510 -75.9190 80° East 503 579 35,000  Level FlightAware
06:01PM 42.5490 -75.8210 92° East 481 554 35,000  Level FlightAware
06:02PM 42.5350 -75.7120 100° East 475 547 35,000  Level FlightAware
06:03PM 42.5210 -75.6110 101° East 471 542 35,000 -720 Level FlightAware
06:03PM 42.5050 -75.5070 102° East 475 547 34,200 -2,160 Descending FlightAware
06:04PM 42.5020 -75.4090 92° East 495 570 32,600 -2,940 Descending FlightAware
06:04PM 42.5010 -75.2910 91° East 495 570 30,800 -2,580 Descending FlightAware
06:05PM 42.4990 -75.1920 92° East 488 562 29,600 -2,220 Descending FlightAware
06:05PM 42.4950 -75.0810 93° East 477 549 28,200 -2,340 Descending FlightAware
06:06PM 42.4910 -74.9860 93° East 470 541 27,000 -2,280 Descending FlightAware
06:07PM 42.4860 -74.8600 93° East 462 532 25,400 -2,040 Descending FlightAware
06:07PM 42.4820 -74.7770 94° East 454 522 24,500 -2,040 Descending FlightAware
06:08PM 42.4790 -74.6300 92° East 454 522 22,700 -1,380 Descending FlightAware
06:09PM 42.4800 -74.5390 89° East 454 522 22,500 -180 Descending FlightAware
06:09PM 42.4810 -74.4520 89° East 454 522 22,500  Level FlightAware
06:10PM 42.4820 -74.3650 89° East 454 522 22,500  Level FlightAware
06:10PM 42.4830 -74.2780 89° East 454 522 22,500  Level FlightAware
06:11PM 42.4840 -74.1910 89° East 454 522 22,500  Level FlightAware
06:12PM 42.4850 -74.1060 89° East 454 522 22,500 -2,820 Level FlightAware
06:13PM 42.4397 -73.8494 89° East 412 474 16,600 -2,880 Descending Boston Center
06:14PM 42.4000 -73.6744 107° East 412 474 15,200 -1,260 Descending Boston Center
06:15PM 42.3661 -73.5303 108° East 401 461 14,100 -1,140 Descending Boston Center
06:16PM 42.3319 -73.3864 108° East 389 448 12,900 -1,440 Descending Boston Center
06:22PM 42.1840 -72.7780 108° East 279 321 5,300 -1,440 Descending FlightAware
06:22PM 42.1810 -72.7670 110° East 274 315 5,200 -660 Descending FlightAware
06:22PM 42.1710 -72.7240 107° East 264 304 4,900 -1,020 Descending FlightAware
06:22PM 42.1620 -72.6920 111° Southeast 261 300 4,500 -1,020 Descending FlightAware
06:23PM 42.1530 -72.6570 109° East 253 291 4,200 -720 Descending FlightAware
06:23PM 42.1460 -72.6320 111° Southeast 247 284 4,000 -360 Descending FlightAware
06:23PM 42.1390 -72.6030 108° East 247 284 4,000  Level FlightAware
06:24PM 42.1300 -72.5690 110° East 233 268 4,000  Level FlightAware
06:24PM 42.1240 -72.5480 111° Southeast 230 265 4,000  Level FlightAware
06:24PM 42.1190 -72.5390 127° Southeast 225 259 4,000 -720 Level FlightAware
06:24PM 42.1110 -72.5260 130° Southeast 224 258 3,800 -1,020 Descending FlightAware
06:25PM 42.1000 -72.5180 152° Southeast 212 244 3,600 -900 Descending FlightAware
06:25PM 42.0940 -72.5180 180° South 208 239 3,500 -840 Descending FlightAware
06:25PM 42.0670 -72.5270 194° South 193 222 3,100 -600 Descending FlightAware
06:26PM 42.0520 -72.5370 206° Southwest 176 203 3,000 -600 Descending FlightAware
06:26PM 42.0410 -72.5530 227° Southwest 165 190 2,700 -960 Descending FlightAware
06:26PM 42.0350 -72.5620 228° Southwest 165 190 2,500 -900 Descending FlightAware
06:27PM 42.0200 -72.5820 225° Southwest 163 188 2,100 -840 Descending FlightAware
06:27PM 42.0080 -72.5970 223° Southwest 149 171 1,800 -420 Descending FlightAware
06:28PM 41.9960 -72.6120 223° Southwest 149 171 1,800 -840 Level FlightAware
06:28PM 42.0080 -72.5970 43° Northeast 134 154 1,100 -840 Descending FlightAware
06:28PM 41.9980 -72.6100 224° Southwest 134 154 1,100  Level FlightAware